Time;durP1;ratioP1;P1;durP2;ratioP2;P2;SDS_P1;SDS_P2;PMS_P1;PMS_P2;Temp;Humidity;BMP_temperature;BMP_pressure;BME280_temperature;BME280_humidity;BME280_pressure;Samples;Min_cycle;Max_cycle;Signal;HPM_P1;HPM_P2
2023/05/28 00:01:18;;;;;;;4.40;2.70;;;;;;;8.07;100.00;101549.56;5067982;28;20037;-81
2023/05/28 00:03:45;;;;;;;3.70;2.40;;;;;;;8.08;100.00;101553.97;5064638;28;20151;-82
2023/05/28 00:06:12;;;;;;;4.57;2.93;;;;;;;7.98;100.00;101547.75;5046430;28;20044;-82
2023/05/28 00:08:38;;;;;;;4.83;2.60;;;;;;;7.93;100.00;101544.25;5075856;28;20038;-81
2023/05/28 00:11:05;;;;;;;5.43;2.87;;;;;;;7.87;100.00;101545.09;5068181;28;20036;-81
2023/05/28 00:13:33;;;;;;;5.20;2.20;;;;;;;7.92;100.00;101541.63;5052943;28;20481;-81
2023/05/28 00:16:00;;;;;;;5.43;2.20;;;;;;;7.92;100.00;101542.50;5063234;28;20075;-82
2023/05/28 00:18:28;;;;;;;5.10;2.80;;;;;;;7.87;100.00;101542.47;5069364;28;20055;-82
2023/05/28 00:20:55;;;;;;;2.93;2.10;;;;;;;7.86;100.00;101531.94;5081572;28;20497;-81
2023/05/28 00:23:22;;;;;;;4.50;2.37;;;;;;;7.77;100.00;101538.03;5056557;28;20135;-81
2023/05/28 00:25:49;;;;;;;6.50;2.73;;;;;;;7.76;100.00;101540.66;5063042;28;20097;-81
2023/05/28 00:28:16;;;;;;;4.20;2.40;;;;;;;7.83;100.00;101537.19;5066716;28;20062;-82
2023/05/28 00:30:42;;;;;;;5.53;2.50;;;;;;;7.76;100.00;101536.28;5062002;28;20038;-81
2023/05/28 00:33:09;;;;;;;4.90;2.47;;;;;;;7.72;100.00;101530.97;5051584;28;20050;-80
2023/05/28 00:35:36;;;;;;;4.50;2.70;;;;;;;7.67;100.00;101530.97;5067243;28;20043;-82
2023/05/28 00:38:03;;;;;;;4.33;2.37;;;;;;;7.61;100.00;101531.81;5087059;28;20545;-82
2023/05/28 00:40:29;;;;;;;7.00;2.90;;;;;;;7.59;100.00;101532.69;5065295;28;20474;-81
2023/05/28 00:42:56;;;;;;;5.57;2.30;;;;;;;7.54;100.00;101532.63;5069001;28;20047;-81
2023/05/28 00:45:22;;;;;;;4.03;2.20;;;;;;;7.49;100.00;101529.13;5051554;28;20067;-81
2023/05/28 00:47:49;;;;;;;4.83;2.50;;;;;;;7.48;100.00;101527.38;5067574;28;20101;-82
2023/05/28 00:50:17;;;;;;;3.20;2.13;;;;;;;7.40;100.00;101528.16;5053568;28;20134;-81
2023/05/28 00:52:46;;;;;;;3.27;2.17;;;;;;;7.38;100.00;101528.16;5084850;28;20088;-80
2023/05/28 00:55:14;;;;;;;3.53;1.90;;;;;;;7.33;100.00;101530.78;5063469;28;20546;-81
2023/05/28 00:57:42;;;;;;;4.93;2.97;;;;;;;7.31;100.00;101524.63;5073719;28;20043;-80
2023/05/28 01:00:09;;;;;;;4.57;2.93;;;;;;;7.22;100.00;101521.91;5055243;28;20122;-81
2023/05/28 01:02:37;;;;;;;4.70;2.20;;;;;;;7.23;100.00;101515.81;5070564;28;20068;-80
2023/05/28 01:05:04;;;;;;;5.73;2.63;;;;;;;7.18;100.00;101521.91;5079181;28;20500;-81
2023/05/28 01:07:32;;;;;;;4.27;2.43;;;;;;;7.18;100.00;101520.16;5068015;28;20520;-80
2023/05/28 01:09:59;;;;;;;4.00;2.40;;;;;;;7.17;100.00;101514.88;5066506;28;20038;-80
2023/05/28 01:12:26;;;;;;;4.33;2.57;;;;;;;7.15;100.00;101520.13;5047390;28;20570;-80
2023/05/28 01:14:53;;;;;;;4.97;2.40;;;;;;;7.08;100.00;101515.69;5046644;28;20036;-81
2023/05/28 01:17:20;;;;;;;4.50;2.20;;;;;;;7.07;100.00;101521.81;5054888;28;20643;-81
2023/05/28 01:19:47;;;;;;;4.77;2.70;;;;;;;7.02;100.00;101518.28;5047751;28;20036;-82
2023/05/28 01:22:17;;;;;;;3.67;2.30;;;;;;;6.99;100.00;101521.75;5085119;28;20036;-81
2023/05/28 01:24:46;;;;;;;4.10;2.47;;;;;;;6.99;100.00;101523.50;5064247;28;20040;-82
2023/05/28 01:27:13;;;;;;;4.53;3.23;;;;;;;6.93;100.00;101523.44;5067731;28;20415;-81
2023/05/28 01:29:40;;;;;;;6.83;2.73;;;;;;;6.94;100.00;101522.56;5053856;28;20127;-81
2023/05/28 01:32:07;;;;;;;6.53;3.53;;;;;;;6.87;100.00;101520.75;5072061;28;20130;-81
2023/05/28 01:34:33;;;;;;;4.53;2.90;;;;;;;6.79;100.00;101518.06;5073873;28;20448;-80
2023/05/28 01:37:07;;;;;;;3.90;2.40;;;;;;;6.77;100.00;101523.31;5067212;28;20070;-80
2023/05/28 01:39:39;;;;;;;5.45;2.50;;;;;;;6.79;100.00;101520.69;5072626;28;20039;-80
2023/05/28 01:42:07;;;;;;;4.00;2.30;;;;;;;6.68;100.00;101514.47;5060238;28;20094;-82
2023/05/28 01:44:34;;;;;;;7.63;2.60;;;;;;;6.61;100.00;101510.91;5072674;28;20175;-82
2023/05/28 01:47:01;;;;;;;4.10;2.40;;;;;;;6.59;100.00;101506.53;5089654;28;20032;-82
2023/05/28 01:49:28;;;;;;;6.03;2.33;;;;;;;6.55;100.00;101516.09;5072382;28;20375;-81
2023/05/28 01:51:55;;;;;;;4.50;2.23;;;;;;;6.48;100.00;101509.06;5087360;28;20155;-81
2023/05/28 01:54:22;;;;;;;4.53;2.30;;;;;;;6.50;100.00;101507.31;5089298;28;20063;-82
2023/05/28 01:56:49;;;;;;;5.50;3.13;;;;;;;6.43;100.00;101502.88;5073318;28;20047;-81
2023/05/28 01:59:16;;;;;;;3.63;2.43;;;;;;;6.42;100.00;101498.47;5061186;28;20471;-82
2023/05/28 02:01:42;;;;;;;4.73;3.03;;;;;;;6.38;100.00;101504.56;5054791;28;20130;-81
2023/05/28 02:04:09;;;;;;;5.33;2.90;;;;;;;6.31;100.00;101500.13;5089609;28;20047;-80
2023/05/28 02:06:36;;;;;;;7.13;4.23;;;;;;;6.28;100.00;101500.94;5064185;28;20039;-81
2023/05/28 02:09:03;;;;;;;5.33;3.87;;;;;;;6.26;100.00;101492.19;5091657;28;20082;-81
2023/05/28 02:11:30;;;;;;;4.93;2.80;;;;;;;6.32;100.00;101492.25;5093779;28;20070;-82
2023/05/28 02:13:57;;;;;;;3.87;2.10;;;;;;;6.38;100.00;101496.69;5075625;28;20085;-81
2023/05/28 02:16:24;;;;;;;4.50;2.63;;;;;;;6.29;100.00;101491.34;5067363;28;20062;-81
2023/05/28 02:18:52;;;;;;;4.87;2.70;;;;;;;6.29;100.00;101492.22;5084291;28;20036;-81
2023/05/28 02:21:19;;;;;;;5.40;2.20;;;;;;;6.20;100.00;101493.00;5071322;28;20063;-81
2023/05/28 02:23:47;;;;;;;3.83;2.53;;;;;;;6.15;100.00;101493.84;5066058;28;20051;-81
2023/05/28 02:26:14;;;;;;;5.20;2.80;;;;;;;6.12;100.00;101486.78;5048769;28;20033;-81
2023/05/28 02:28:44;;;;;;;6.17;2.60;;;;;;;6.03;100.00;101485.81;5054499;28;20055;-81
2023/05/28 02:31:11;;;;;;;4.73;2.80;;;;;;;5.97;100.00;101490.97;5075858;28;20046;-80
2023/05/28 02:33:39;;;;;;;4.37;2.33;;;;;;;5.93;100.00;101490.06;5077280;28;20126;-81
2023/05/28 02:36:06;;;;;;;5.63;2.57;;;;;;;5.89;100.00;101493.50;5084468;28;20123;-82
2023/05/28 02:38:32;;;;;;;3.87;2.70;;;;;;;5.95;100.00;101490.97;5065920;28;20038;-82
2023/05/28 02:40:59;;;;;;;3.83;1.93;;;;;;;5.88;100.00;101489.97;5082033;28;20040;-82
2023/05/28 02:43:26;;;;;;;3.80;2.63;;;;;;;5.84;100.00;101497.81;5059180;28;20046;-81
2023/05/28 02:45:52;;;;;;;4.37;2.90;;;;;;;5.83;100.00;101489.06;5056069;28;20126;-81
2023/05/28 02:48:20;;;;;;;3.67;2.23;;;;;;;5.77;100.00;101495.97;5087872;28;20119;-81
2023/05/28 02:50:46;;;;;;;3.77;2.43;;;;;;;5.81;100.00;101497.78;5060185;28;20037;-82
2023/05/28 02:53:13;;;;;;;4.30;2.53;;;;;;;5.79;100.00;101494.22;5075628;28;20042;-80
2023/05/28 02:55:40;;;;;;;6.03;3.20;;;;;;;5.74;100.00;101495.94;5052044;28;20563;-80
2023/05/28 02:58:07;;;;;;;4.00;2.20;;;;;;;5.77;100.00;101493.34;5059824;28;20036;-81
2023/05/28 03:00:34;;;;;;;6.63;2.63;;;;;;;5.81;100.00;101490.78;5066735;28;20064;-81
2023/05/28 03:03:00;;;;;;;6.33;2.50;;;;;;;5.79;100.00;101499.47;5063015;28;20139;-83
2023/05/28 03:05:28;;;;;;;5.20;2.80;;;;;;;5.70;100.00;101496.75;5060629;28;20051;-80
2023/05/28 03:07:55;;;;;;;4.57;2.87;;;;;;;5.67;100.00;101488.84;5074836;28;20058;-80
2023/05/28 03:10:22;;;;;;;4.53;2.50;;;;;;;5.70;100.00;101487.13;5056226;28;20569;-80
2023/05/28 03:12:48;;;;;;;4.97;2.60;;;;;;;5.71;100.00;101494.13;5051991;28;20517;-80
2023/05/28 03:15:15;;;;;;;3.93;2.40;;;;;;;5.70;100.00;101487.13;5057858;28;20063;-82
2023/05/28 03:17:42;;;;;;;5.30;2.17;;;;;;;5.67;100.00;101497.59;5061476;28;20097;-81
2023/05/28 03:20:10;;;;;;;3.50;2.23;;;;;;;5.64;100.00;101492.31;5067370;28;20039;-80
2023/05/28 03:22:38;;;;;;;3.60;2.03;;;;;;;5.57;100.00;101491.34;5069309;28;20047;-81
2023/05/28 03:25:05;;;;;;;3.93;2.83;;;;;;;5.57;100.00;101486.09;5063536;28;20054;-81
2023/05/28 03:27:32;;;;;;;5.23;2.77;;;;;;;5.57;100.00;101486.09;5047616;28;20408;-81
2023/05/28 03:29:59;;;;;;;4.63;2.80;;;;;;;5.60;100.00;101493.13;5078017;28;20073;-81
2023/05/28 03:32:26;;;;;;;4.10;2.33;;;;;;;5.56;100.00;101492.22;5092702;28;20058;-80
2023/05/28 03:34:52;;;;;;;4.17;2.53;;;;;;;5.55;100.00;101489.53;5072646;28;20039;-81
2023/05/28 03:37:19;;;;;;;4.23;3.00;;;;;;;5.62;100.00;101487.03;5091939;28;20118;-82
2023/05/28 03:39:46;;;;;;;3.90;2.33;;;;;;;5.71;100.00;101495.88;5056264;28;20104;-80
2023/05/28 03:42:13;;;;;;;4.63;2.40;;;;;;;5.71;100.00;101495.88;5055584;28;20078;-81
2023/05/28 03:44:39;;;;;;;3.67;2.37;;;;;;;5.66;100.00;101495.84;5073864;28;20066;-81
2023/05/28 03:47:06;;;;;;;5.37;2.97;;;;;;;5.71;100.00;101491.50;5061092;28;20131;-80
2023/05/28 03:49:33;;;;;;;4.53;3.07;;;;;;;5.74;100.00;101495.94;5062177;28;20484;-81
2023/05/28 03:51:59;;;;;;;3.80;2.50;;;;;;;5.77;100.00;101498.59;5074089;28;20143;-81
2023/05/28 03:54:26;;;;;;;4.03;2.30;;;;;;;5.79;100.00;101502.09;5056955;28;20465;-80
2023/05/28 03:56:53;;;;;;;3.53;2.43;;;;;;;5.82;100.00;101496.91;5074095;28;20068;-83
2023/05/28 03:59:20;;;;;;;4.67;3.47;;;;;;;5.80;100.00;101496.00;5077064;28;20040;-80
2023/05/28 04:01:47;;;;;;;3.43;2.40;;;;;;;5.84;100.00;101497.81;5069374;28;20063;-80
2023/05/28 04:04:13;;;;;;;5.77;3.00;;;;;;;5.87;100.00;101489.97;5060440;28;20032;-82
2023/05/28 04:06:41;;;;;;;3.80;2.40;;;;;;;5.88;100.00;101494.34;5075640;28;20038;-81
2023/05/28 04:09:08;;;;;;;4.30;2.40;;;;;;;5.87;100.00;101492.59;5044581;28;20040;-83
2023/05/28 04:11:37;;;;;;;5.67;2.57;;;;;;;5.90;100.00;101493.56;5063426;28;20040;-80
2023/05/28 04:14:03;;;;;;;4.23;2.27;;;;;;;5.95;100.00;101493.59;5076458;28;20052;-82
2023/05/28 04:16:31;;;;;;;5.37;2.50;;;;;;;5.97;100.00;101499.75;5059538;28;20036;-80
2023/05/28 04:19:00;;;;;;;5.40;2.53;;;;;;;6.00;100.00;101497.16;5061241;28;20497;-82
2023/05/28 04:21:28;;;;;;;3.90;2.43;;;;;;;6.03;100.00;101489.31;5073319;28;20451;-80
2023/05/28 04:23:55;;;;;;;5.73;2.77;;;;;;;6.13;100.00;101493.78;5076219;28;20035;-81
2023/05/28 04:26:22;;;;;;;4.60;2.17;;;;;;;6.19;100.00;101491.25;5077995;28;20036;-80
2023/05/28 04:28:50;;;;;;;5.00;2.83;;;;;;;6.22;100.00;101495.63;5063379;28;20467;-83
2023/05/28 04:31:17;;;;;;;4.83;2.43;;;;;;;6.29;100.00;101502.72;5056993;28;20046;-81
2023/05/28 04:33:46;;;;;;;2.73;2.23;;;;;;;6.36;100.00;101494.03;5045960;28;20136;-82
2023/05/28 04:36:15;;;;;;;4.90;2.53;;;;;;;6.36;100.00;101487.91;5085446;28;20489;-82
2023/05/28 04:38:42;;;;;;;3.50;2.10;;;;;;;6.42;100.00;101494.13;5071579;28;20054;-83
2023/05/28 04:41:13;;;;;;;5.93;2.50;;;;;;;6.53;100.00;101496.81;5084640;28;20048;-79
2023/05/28 04:43:41;;;;;;;3.60;2.53;;;;;;;6.62;100.00;101496.91;5049401;28;20043;-82
2023/05/28 04:46:08;;;;;;;5.17;2.47;;;;;;;6.69;100.00;101487.34;5055157;28;20114;-82
2023/05/28 04:48:35;;;;;;;3.67;2.27;;;;;;;6.74;100.00;101485.66;5067415;28;20047;-81
2023/05/28 04:51:03;;;;;;;5.47;2.80;;;;;;;6.80;100.00;101483.06;5064474;28;20043;-83
2023/05/28 04:53:31;;;;;;;6.40;2.73;;;;;;;6.92;100.00;101479.66;5067507;28;20044;-83
2023/05/28 04:55:57;;;;;;;4.63;2.37;;;;;;;7.25;100.00;101490.41;5041427;28;20070;-80
2023/05/28 04:58:24;;;;;;;3.07;2.20;;;;;;;7.48;100.00;101487.00;5055947;28;20075;-81
2023/05/28 05:00:52;;;;;;;3.50;2.27;;;;;;;7.60;100.00;101485.34;5072744;28;20061;-80
2023/05/28 05:03:19;;;;;;;4.10;2.70;;;;;;;7.63;100.00;101487.09;5090878;28;20076;-83
2023/05/28 05:05:47;;;;;;;4.43;2.87;;;;;;;7.67;100.00;101478.38;5093436;28;20631;-81
2023/05/28 05:08:13;;;;;;;4.50;2.57;;;;;;;8.08;100.00;101475.91;5068947;28;20039;-81
2023/05/28 05:10:40;;;;;;;3.03;2.10;;;;;;;8.26;100.00;101475.06;5077925;28;20046;-82
2023/05/28 05:13:07;;;;;;;4.13;2.50;;;;;;;8.36;100.00;101483.88;5059576;28;20071;-82
2023/05/28 05:15:34;;;;;;;3.30;2.30;;;;;;;8.29;100.00;101477.69;5057878;28;20123;-79
2023/05/28 05:18:00;;;;;;;4.97;2.67;;;;;;;8.23;100.00;101477.66;5066326;28;20032;-82
2023/05/28 05:20:27;;;;;;;3.43;2.00;;;;;;;8.21;100.00;101471.53;5075508;28;20054;-83
2023/05/28 05:22:54;;;;;;;3.50;2.17;;;;;;;8.33;100.00;101476.81;5074238;28;20040;-83
2023/05/28 05:25:21;;;;;;;4.23;2.40;;;;;;;8.50;100.00;101476.00;5074572;28;20504;-82
2023/05/28 05:27:51;;;;;;;5.07;2.60;;;;;;;8.66;100.00;101478.66;5087669;28;20428;-80
2023/05/28 05:30:17;;;;;;;3.67;2.30;;;;;;;9.04;100.00;101475.13;5074338;28;20119;-82
2023/05/28 05:32:44;;;;;;;5.00;2.47;;;;;;;9.31;100.00;101467.16;5069058;28;20115;-81
2023/05/28 05:35:11;;;;;;;4.60;2.50;;;;;;;10.23;100.00;101471.19;5084314;28;21518;-83
2023/05/28 05:37:38;;;;;;;3.25;2.17;;;;;;;11.17;98.59;101467.78;5078837;28;20509;-81
2023/05/28 05:40:05;;;;;;;3.60;2.50;;;;;;;12.30;91.41;101468.22;5083107;28;20043;-84
2023/05/28 05:42:32;;;;;;;3.88;2.35;;;;;;;14.34;77.98;101458.16;5078141;28;20093;-79
2023/05/28 05:44:59;;;;;;;3.78;2.28;;;;;;;15.59;69.30;101462.06;5060919;28;20058;-81
2023/05/28 05:47:25;;;;;;;5.50;2.30;;;;;;;16.39;62.12;101458.75;5056518;28;20040;-85
2023/05/28 05:49:52;;;;;;;2.97;2.47;;;;;;;18.27;56.95;101450.28;5076357;28;20024;-82
2023/05/28 05:52:19;;;;;;;3.38;2.05;;;;;;;19.47;50.43;101455.97;5061758;28;20063;-82
2023/05/28 05:54:46;;;;;;;2.92;2.15;;;;;;;19.57;51.03;101460.88;5094879;28;20043;-82
2023/05/28 05:57:14;;;;;;;3.88;2.35;;;;;;;19.83;50.45;101448.94;5059649;28;20107;-80
2023/05/28 05:59:40;;;;;;;4.43;2.25;;;;;;;20.70;47.64;101450.16;5086651;28;20046;-82
2023/05/28 06:02:07;;;;;;;3.47;2.20;;;;;;;20.85;47.07;101448.53;5072442;28;20048;-83
2023/05/28 06:04:34;;;;;;;3.38;2.20;;;;;;;20.73;47.35;101457.19;5066763;28;20036;-82
2023/05/28 06:07:06;;;;;;;3.03;1.88;;;;;;;20.54;48.71;101448.31;5059446;28;20039;-82
2023/05/28 06:09:33;;;;;;;4.20;2.38;;;;;;;20.01;50.48;101455.28;5056727;28;20630;-80
2023/05/28 06:12:01;;;;;;;3.67;2.40;;;;;;;19.38;54.07;101468.84;5072608;28;20066;-84
2023/05/28 06:14:28;;;;;;;2.95;2.05;;;;;;;19.03;57.14;101461.47;5055853;28;20046;-84
2023/05/28 06:16:55;;;;;;;4.30;2.25;;;;;;;18.88;56.16;101462.13;5070751;28;20390;-80
2023/05/28 06:19:22;;;;;;;3.30;2.30;;;;;;;18.50;58.25;101457.41;5065811;28;20032;-83
2023/05/28 06:21:48;;;;;;;2.90;2.58;;;;;;;18.32;60.12;101460.78;5048367;28;20382;-84
2023/05/28 06:24:15;;;;;;;5.85;2.50;;;;;;;18.49;60.40;101454.75;5074277;28;20036;-81
2023/05/28 06:26:42;;;;;;;4.65;2.67;;;;;;;18.66;58.76;101446.06;5062643;28;20050;-81
2023/05/28 06:29:09;;;;;;;5.70;3.20;;;;;;;18.80;56.02;101446.38;5069723;28;20131;-83
2023/05/28 06:31:36;;;;;;;3.58;2.58;;;;;;;18.94;55.76;101441.31;5077672;28;20031;-83
2023/05/28 06:34:03;;;;;;;4.57;3.03;;;;;;;19.10;53.13;101449.56;5057434;28;20100;-83
2023/05/28 06:36:30;;;;;;;4.05;2.67;;;;;;;19.16;49.17;101448.41;5066504;28;20497;-81
2023/05/28 06:38:57;;;;;;;3.92;2.55;;;;;;;19.46;51.22;101449.75;5078383;28;20059;-83
2023/05/28 06:41:23;;;;;;;3.22;2.53;;;;;;;19.52;46.93;101454.84;5078738;28;20134;-82
2023/05/28 06:43:50;;;;;;;4.85;2.78;;;;;;;19.60;47.61;101458.06;5055473;28;20039;-82
2023/05/28 06:46:17;;;;;;;7.38;2.90;;;;;;;19.75;44.92;101452.94;5077625;28;20424;-84
2023/05/28 06:48:44;;;;;;;4.45;2.50;;;;;;;19.81;46.01;101458.00;5079298;28;20447;-82
2023/05/28 06:51:10;;;;;;;4.65;2.67;;;;;;;19.79;46.83;101459.91;5050686;28;20135;-83
2023/05/28 06:53:38;;;;;;;3.92;3.13;;;;;;;19.86;47.98;101458.69;5073825;28;20047;-84
2023/05/28 06:56:06;;;;;;;4.65;2.30;;;;;;;20.04;43.89;101455.13;5080023;28;20050;-84
2023/05/28 06:58:32;;;;;;;4.90;2.10;;;;;;;20.11;41.50;101464.63;5077173;28;20050;-83
2023/05/28 07:01:01;;;;;;;7.65;3.13;;;;;;;20.15;43.53;101455.50;5094200;28;20122;-82
2023/05/28 07:03:28;;;;;;;4.45;2.90;;;;;;;20.27;41.49;101461.22;5062171;28;20136;-81
2023/05/28 07:05:55;;;;;;;6.28;2.45;;;;;;;20.46;41.59;101451.38;5064143;28;20044;-84
2023/05/28 07:08:22;;;;;;;3.65;2.45;;;;;;;20.59;40.89;101449.78;5069084;28;20131;-81
2023/05/28 07:10:49;;;;;;;5.55;2.53;;;;;;;20.74;41.23;101448.16;5059746;28;20123;-84
2023/05/28 07:13:15;;;;;;;5.82;3.20;;;;;;;20.64;37.48;101452.28;5062301;28;20119;-84
2023/05/28 07:15:42;;;;;;;6.40;2.65;;;;;;;20.78;38.71;101456.00;5053178;28;20035;-83
2023/05/28 07:18:09;;;;;;;6.68;2.85;;;;;;;20.47;37.48;101447.72;5068085;28;20461;-84
2023/05/28 07:20:36;;;;;;;3.33;2.28;;;;;;;20.65;39.54;101445.94;5054353;28;20032;-82
2023/05/28 07:23:04;;;;;;;4.30;2.47;;;;;;;21.03;37.96;101444.88;5052092;28;20125;-81
2023/05/28 07:25:31;;;;;;;3.85;2.45;;;;;;;21.12;37.60;101448.91;5069022;28;20044;-84
2023/05/28 07:27:58;;;;;;;3.80;2.33;;;;;;;21.39;39.11;101445.75;5057765;28;20109;-85
2023/05/28 07:30:25;;;;;;;4.65;2.25;;;;;;;21.45;37.48;101454.38;5077557;28;20090;-83
2023/05/28 07:32:51;;;;;;;4.65;2.50;;;;;;;21.69;35.67;101449.47;5075722;28;20067;-83
2023/05/28 07:35:18;;;;;;;4.32;2.70;;;;;;;21.58;34.09;101450.06;5065446;28;20048;-81
2023/05/28 07:37:45;;;;;;;3.75;2.15;;;;;;;21.61;35.21;101457.09;5072703;28;20031;-82
2023/05/28 07:40:12;;;;;;;4.47;2.38;;;;;;;21.77;34.99;101449.06;5082953;28;20043;-84
2023/05/28 07:42:38;;;;;;;3.10;2.47;;;;;;;21.18;34.41;101431.56;5059868;28;20121;-82
2023/05/28 07:45:05;;;;;;;5.72;2.22;;;;;;;21.76;36.43;101436.56;5068447;28;20451;-84
2023/05/28 07:47:32;;;;;;;4.47;2.28;;;;;;;22.01;34.17;101438.75;5071611;28;20046;-81
2023/05/28 07:49:59;;;;;;;6.28;2.95;;;;;;;22.31;34.33;101439.78;5062625;28;20058;-81
2023/05/28 07:52:29;;;;;;;3.13;2.42;;;;;;;22.42;33.58;101434.63;5080022;28;20036;-81
2023/05/28 07:54:59;;;;;;;3.83;2.38;;;;;;;22.62;34.32;101432.63;5051479;28;20036;-80
2023/05/28 07:57:26;;;;;;;5.20;2.40;;;;;;;22.72;33.31;101436.50;5068963;28;20066;-82
2023/05/28 07:59:53;;;;;;;3.88;2.20;;;;;;;22.73;32.42;101432.84;5072496;28;20043;-81
2023/05/28 08:02:19;;;;;;;4.38;2.50;;;;;;;22.77;31.64;101427.16;5060451;28;20040;-81
2023/05/28 08:04:48;;;;;;;5.78;3.28;;;;;;;22.89;32.72;101425.63;5083726;28;20055;-82
2023/05/28 08:07:15;;;;;;;4.32;2.50;;;;;;;23.02;32.71;101423.03;5071030;28;20036;-81
2023/05/28 08:09:42;;;;;;;3.90;2.28;;;;;;;22.77;32.04;101429.00;5053849;28;20118;-81
2023/05/28 08:12:09;;;;;;;4.55;2.70;;;;;;;22.62;31.17;101424.53;5051327;28;20108;-82
2023/05/28 08:14:35;;;;;;;3.88;2.20;;;;;;;22.81;31.82;101427.88;5066708;28;20035;-81
2023/05/28 08:17:02;;;;;;;4.22;2.20;;;;;;;22.64;32.34;101419.94;5063226;28;20065;-83
2023/05/28 08:19:30;;;;;;;7.32;2.63;;;;;;;23.00;33.70;101423.16;5062880;28;20043;-83
2023/05/28 08:21:57;;;;;;;11.75;3.67;;;;;;;23.09;30.93;101418.16;5085243;28;20122;-81
2023/05/28 08:24:24;;;;;;;3.55;2.35;;;;;;;23.19;31.80;101417.50;5093429;28;20045;-81
2023/05/28 08:26:51;;;;;;;4.07;2.53;;;;;;;23.37;30.44;101406.53;5068401;28;20484;-82
2023/05/28 08:29:18;;;;;;;3.88;2.45;;;;;;;23.07;30.16;101409.31;5084661;28;21554;-82
2023/05/28 08:31:45;;;;;;;10.57;3.28;;;;;;;23.31;30.72;101411.38;5092286;28;20075;-82
2023/05/28 08:34:11;;;;;;;2.95;2.15;;;;;;;23.27;30.73;101403.53;5071846;28;20036;-83
2023/05/28 08:36:42;;;;;;;5.38;2.33;;;;;;;22.54;29.50;101403.44;5074696;28;20404;-82
2023/05/28 08:39:12;;;;;;;6.35;2.22;;;;;;;22.98;31.54;101400.81;5061449;28;20542;-83
2023/05/28 08:41:39;;;;;;;3.97;2.30;;;;;;;22.87;29.74;101395.22;5068239;28;20061;-82
2023/05/28 08:44:07;;;;;;;7.68;2.80;;;;;;;23.27;30.42;101398.16;5059541;28;20107;-83
2023/05/28 08:46:34;;;;;;;2.88;2.00;;;;;;;23.54;30.67;101390.16;5075672;28;20135;-81
2023/05/28 08:49:02;;;;;;;2.63;2.05;;;;;;;23.57;29.56;101390.84;5087390;28;20040;-82
2023/05/28 08:51:32;;;;;;;4.32;1.90;;;;;;;23.79;28.66;101384.97;5050626;28;20033;-82
2023/05/28 08:54:00;;;;;;;4.35;2.17;;;;;;;23.84;29.25;101382.00;5069359;28;20043;-83
2023/05/28 08:56:27;;;;;;;3.85;2.20;;;;;;;23.96;28.59;101375.78;5055483;28;20051;-83
2023/05/28 08:58:54;;;;;;;4.22;2.22;;;;;;;23.41;29.14;101382.00;5056857;28;20055;-81
2023/05/28 09:01:22;;;;;;;4.72;2.30;;;;;;;23.95;28.95;101382.16;5061777;28;20051;-82
2023/05/28 09:03:49;;;;;;;3.33;2.00;;;;;;;24.21;28.94;101376.88;5053347;28;20041;-82
2023/05/28 09:06:16;;;;;;;4.65;1.90;;;;;;;24.50;28.68;101375.84;5053071;28;20036;-82
2023/05/28 09:08:44;;;;;;;3.33;2.20;;;;;;;24.38;28.07;101369.44;5070902;28;20139;-82
2023/05/28 09:11:14;;;;;;;4.60;1.90;;;;;;;24.47;27.16;101367.06;5059088;28;20033;-82
2023/05/28 09:13:42;;;;;;;4.10;2.25;;;;;;;24.69;28.09;101361.94;5055845;28;20036;-82
2023/05/28 09:16:09;;;;;;;4.07;2.35;;;;;;;24.89;27.76;101356.06;5094881;28;20131;-82
2023/05/28 09:18:39;;;;;;;2.58;2.30;;;;;;;25.13;27.93;101360.72;5089405;28;20480;-82
2023/05/28 09:21:10;;;;;;;12.55;3.78;;;;;;;25.08;27.73;101352.94;5058238;28;20059;-83
2023/05/28 09:23:41;;;;;;;25.95;5.03;;;;;;;25.41;27.94;101359.66;5088239;28;20400;-83
2023/05/28 09:26:09;;;;;;;4.13;2.25;;;;;;;25.65;28.33;101362.44;5073402;28;20143;-81
2023/05/28 09:28:41;;;;;;;2.38;2.05;;;;;;;25.42;25.29;101361.38;5094989;28;20058;-83
2023/05/28 09:31:10;;;;;;;3.83;2.30;;;;;;;25.05;26.27;101360.41;5061329;28;20040;-82
2023/05/28 09:33:44;;;;;;;6.65;2.58;;;;;;;24.80;26.63;101356.66;5054395;28;20040;-82
2023/05/28 09:36:15;;;;;;;5.63;2.30;;;;;;;24.88;27.56;101351.59;5069649;28;20067;-83
2023/05/28 09:38:45;;;;;;;6.90;2.33;;;;;;;25.11;27.29;101360.84;5073301;28;20035;-82
2023/05/28 09:41:20;;;;;;;5.13;1.90;;;;;;;25.19;27.24;101354.88;5054021;28;20039;-82
2023/05/28 09:43:56;;;;;;;5.60;2.67;;;;;;;24.88;26.59;101353.44;5072399;28;20040;-82
2023/05/28 09:46:28;;;;;;;4.40;2.10;;;;;;;25.14;27.92;101346.22;5047663;28;20114;-83
2023/05/28 09:48:55;;;;;;;5.13;2.63;;;;;;;25.08;26.73;101350.25;5053429;28;20055;-81
2023/05/28 09:51:30;;;;;;;3.58;2.35;;;;;;;25.34;26.81;101350.25;5076707;28;20062;-82
2023/05/28 09:54:03;;;;;;;3.20;2.22;;;;;;;24.98;26.63;101354.53;5074381;28;20028;-82
2023/05/28 09:56:31;;;;;;;2.92;1.90;;;;;;;24.98;26.81;101355.41;5077752;28;20032;-83
2023/05/28 09:59:02;;;;;;;3.58;2.20;;;;;;;24.88;26.79;101350.72;5069171;28;20458;-82
2023/05/28 10:01:50;;;;;;;4.32;2.38;;;;;;;25.16;26.54;101347.00;5078456;28;20035;-82
2023/05/28 10:04:18;;;;;;;5.82;2.58;;;;;;;25.05;25.76;101347.75;5066191;28;20036;-82
2023/05/28 10:06:45;;;;;;;2.75;2.40;;;;;;;24.87;27.00;101349.00;5075726;28;20050;-82
2023/05/28 10:09:14;;;;;;;3.70;2.65;;;;;;;25.15;27.31;101334.47;5058467;28;20059;-84
2023/05/28 10:11:43;;;;;;;2.95;1.90;;;;;;;25.57;26.00;101335.94;5056481;28;20120;-82
2023/05/28 10:14:11;;;;;;;3.20;2.00;;;;;;;25.73;26.12;101339.28;5073894;28;20569;-83
2023/05/28 10:16:37;;;;;;;4.00;2.20;;;;;;;25.43;24.88;101328.78;5076436;28;20126;-83
2023/05/28 10:19:04;;;;;;;4.28;2.40;;;;;;;25.48;25.98;101332.03;5075697;28;20044;-82
2023/05/28 10:21:32;;;;;;;3.60;1.80;;;;;;;25.62;26.44;101331.03;5060614;28;20036;-82
2023/05/28 10:23:59;;;;;;;3.92;2.78;;;;;;;25.89;26.31;101327.28;5076717;28;20044;-82
2023/05/28 10:26:26;;;;;;;5.10;2.20;;;;;;;25.68;25.95;101333.28;5084022;28;20035;-81
2023/05/28 10:28:56;;;;;;;3.58;2.45;;;;;;;25.39;25.38;101321.00;5075969;28;20093;-82
2023/05/28 10:31:24;;;;;;;4.57;2.45;;;;;;;25.31;25.77;101320.69;5061741;28;20039;-82
2023/05/28 10:33:50;;;;;;;4.25;2.33;;;;;;;24.77;26.94;101329.84;5059258;28;20047;-82
2023/05/28 10:36:17;;;;;;;4.32;2.45;;;;;;;24.87;25.49;101319.25;5054326;28;20500;-83
2023/05/28 10:38:50;;;;;;;3.70;2.65;;;;;;;25.01;26.30;101312.91;5051715;28;20032;-82
2023/05/28 10:41:21;;;;;;;4.88;2.30;;;;;;;25.19;25.80;101314.31;5105745;27;20032;-82
2023/05/28 10:43:48;;;;;;;3.08;2.65;;;;;;;25.43;26.44;101315.28;5048118;28;20048;-83
2023/05/28 10:46:17;;;;;;;2.67;1.90;;;;;;;25.21;26.25;101310.53;5059095;28;20383;-82
2023/05/28 10:49:19;;;;;;;4.55;2.20;;;;;;;24.80;26.64;101315.25;5067763;28;20039;-83
2023/05/28 10:51:57;;;;;;;5.30;2.30;;;;;;;25.15;28.00;101302.88;5024954;28;20055;-82
2023/05/28 10:54:30;;;;;;;2.90;2.28;;;;;;;25.34;27.72;101304.25;5050632;28;20048;-83
2023/05/28 10:57:13;;;;;;;4.25;2.55;;;;;;;25.56;26.76;101304.44;5086590;28;20165;-82
2023/05/28 10:59:49;;;;;;;2.92;2.20;;;;;;;25.79;25.65;101303.63;5093079;28;20039;-82
2023/05/28 11:02:32;;;;;;;2.97;1.90;;;;;;;25.65;25.61;101306.47;5068044;28;20127;-83
2023/05/28 11:05:01;;;;;;;7.80;2.80;;;;;;;24.27;25.92;101300.88;5055328;28;20142;-82
2023/05/28 11:07:30;;;;;;;2.63;2.08;;;;;;;25.03;26.75;101302.88;5048635;28;20095;-83
2023/05/28 11:09:58;;;;;;;2.92;1.90;;;;;;;25.29;26.34;101301.00;5084781;28;20089;-83
2023/05/28 11:12:26;;;;;;;4.22;2.65;;;;;;;25.38;26.64;101301.19;5074556;28;20133;-83
2023/05/28 11:14:54;;;;;;;4.68;2.35;;;;;;;25.54;25.70;101298.25;5082395;28;20036;-83
2023/05/28 11:17:25;;;;;;;3.60;2.50;;;;;;;25.74;26.44;101297.69;5072182;28;20139;-82
2023/05/28 11:19:53;;;;;;;3.63;2.45;;;;;;;25.87;26.41;101299.47;5081190;28;20040;-84
2023/05/28 11:22:20;;;;;;;3.10;2.30;;;;;;;25.81;26.01;101293.56;5049274;28;20046;-83
2023/05/28 11:25:01;;;;;;;5.82;2.40;;;;;;;25.50;26.91;101294.91;5062930;28;20044;-83
2023/05/28 11:27:29;;;;;;;4.15;2.40;;;;;;;25.76;25.67;101284.03;5065583;28;20050;-84